PWSweather.com
Personal Weather Stations
Station Observations
KCTHAMDEN
Dunbar Hill, Hamden, CT 06514

Dunbar HillHamden, CT 06514

Lat: 41.365437, Lon: -72.956532

Elevation: 200

Station Type: Davis Vantage Pro2+

www.hamdenweather.com

High Low Average
Temperature 36.7°F2.6°C 31.4°F-0.3°C 34.0°F1.1°C
Dew Point 34.2°F1.2°C 24.5°F-4.2°C 30.7°F-0.7°C
Winds 13.3 mph 21.4 kmh Calm Calm 4.0 mph S6.4 kmh S
Wind Gusts 20.0 mph32.2 kmh -- 9.0 mph14.5 kmh
Humidity 96% 72% 88%
Pressure 29.75 in1007.5 mb 29.54 in1000.3 mb -
Precipitation 0.28 in7.1 mm - -
Hour Temp Dew Point Humidity Winds Wind Gusts Pressure Precip Precip Rate Daily Precip Total
12:00 AM 37.7°F3.2°C 29.1°F-1.6°C 71% 3.2 mph NE5.1 kmh NE 9.0 mph14.5 kmh 29.79 in1008.8 mb - 0.00 in0.0 mm 0.00 in0.0 mm
12:15 AM 37.5°F3.1°C 29.3°F-1.5°C 72% 0.7 mph N1.1 kmh N 8.0 mph12.9 kmh 29.78 in1008.5 mb - 0.00 in0.0 mm 0.00 in0.0 mm
12:30 AM 37.4°F3.0°C 29.5°F-1.4°C 73% 1.3 mph ENE2.1 kmh ENE 7.0 mph11.3 kmh 29.77 in1008.1 mb - 0.00 in0.0 mm 0.00 in0.0 mm
12:45 AM 36.8°F2.7°C 30.6°F-0.8°C 78% 7.4 mph N11.9 kmh N 9.0 mph14.5 kmh 29.76 in1007.8 mb - 0.00 in0.0 mm 0.00 in0.0 mm
01:00 AM 36.0°F2.2°C 31.1°F-0.5°C 82% 0.9 mph NNE1.4 kmh NNE 10.0 mph16.1 kmh 29.75 in1007.5 mb - 0.00 in0.0 mm 0.00 in0.0 mm
01:15 AM 35.1°F1.7°C 31.1°F-0.5°C 85% 0.3 mph NNE0.5 kmh NNE 2.0 mph3.2 kmh 29.75 in1007.5 mb - 0.00 in0.0 mm 0.00 in0.0 mm
01:30 AM 34.4°F1.3°C 31.2°F-0.4°C 88% 2.4 mph W3.9 kmh W 9.0 mph14.5 kmh 29.73 in1006.8 mb - 0.00 in0.0 mm 0.00 in0.0 mm
01:45 AM 33.9°F1.1°C 31.0°F-0.6°C 89% 3.1 mph NW5.0 kmh NW 7.0 mph11.3 kmh 29.73 in1006.8 mb - 0.00 in0.0 mm 0.00 in0.0 mm
02:00 AM 33.8°F1.0°C 31.5°F-0.3°C 91% 2.8 mph NNE4.5 kmh NNE 4.0 mph6.4 kmh 29.73 in1006.8 mb - 0.00 in0.0 mm 0.00 in0.0 mm
02:15 AM 33.7°F0.9°C 31.4°F-0.3°C 91% 3.6 mph NNE5.8 kmh NNE 9.0 mph14.5 kmh 29.71 in1006.1 mb - 0.00 in0.0 mm 0.00 in0.0 mm
02:30 AM 33.5°F0.8°C 31.4°F-0.3°C 92% 2.4 mph NE3.9 kmh NE 9.0 mph14.5 kmh 29.69 in1005.4 mb - 0.00 in0.0 mm 0.00 in0.0 mm
02:45 AM 33.4°F0.8°C 31.3°F-0.4°C 92% 2.0 mph NNE3.2 kmh NNE 2.0 mph3.2 kmh 29.68 in1005.1 mb - 0.00 in0.0 mm 0.00 in0.0 mm
03:00 AM 33.4°F0.8°C 31.6°F-0.2°C 93% 2.3 mph NE3.7 kmh NE 10.0 mph16.1 kmh 29.66 in1004.4 mb - 0.00 in0.0 mm 0.00 in0.0 mm
03:15 AM 33.4°F0.8°C 31.6°F-0.2°C 93% 3.6 mph W5.8 kmh W 14.0 mph22.5 kmh 29.64 in1003.7 mb - 0.00 in0.0 mm 0.00 in0.0 mm
03:30 AM 33.3°F0.7°C 31.5°F-0.3°C 93% 7.4 mph N11.9 kmh N 11.0 mph17.7 kmh 29.63 in1003.4 mb - 0.00 in0.0 mm 0.00 in0.0 mm
03:45 AM 33.3°F0.7°C 31.8°F-0.1°C 94% 6.1 mph NNE9.8 kmh NNE 10.0 mph16.1 kmh 29.61 in1002.7 mb - 0.00 in0.0 mm 0.00 in0.0 mm
04:00 AM 33.4°F0.8°C 31.9°F-0.1°C 94% 5.1 mph WSW8.2 kmh WSW 12.0 mph19.3 kmh 29.61 in1002.7 mb - 0.00 in0.0 mm 0.00 in0.0 mm
04:15 AM 33.5°F0.8°C 32.0°F0.0°C 94% 5.5 mph NNE8.9 kmh NNE 12.0 mph19.3 kmh 29.60 in1002.4 mb - 0.00 in0.0 mm 0.00 in0.0 mm
04:30 AM 33.5°F0.8°C 32.0°F0.0°C 94% 5.4 mph W8.7 kmh W 9.0 mph14.5 kmh 29.60 in1002.4 mb - 0.00 in0.0 mm 0.00 in0.0 mm
04:45 AM 33.5°F0.8°C 31.9°F-0.1°C 94% 11.0 mph NE17.7 kmh NE 16.0 mph25.7 kmh 29.59 in1002.0 mb - 0.00 in0.0 mm 0.00 in0.0 mm
05:00 AM 33.5°F0.8°C 31.9°F-0.1°C 94% 8.1 mph NNE13.0 kmh NNE 13.0 mph20.9 kmh 29.59 in1002.0 mb - 0.00 in0.0 mm 0.00 in0.0 mm
05:15 AM 33.4°F0.8°C 31.9°F-0.1°C 94% 6.7 mph NE10.8 kmh NE 13.0 mph20.9 kmh 29.58 in1001.7 mb - 0.00 in0.0 mm 0.00 in0.0 mm
05:30 AM 33.4°F0.8°C 31.9°F-0.1°C 94% 1.6 mph WSW2.6 kmh WSW 14.0 mph22.5 kmh 29.57 in1001.4 mb - 0.00 in0.0 mm 0.00 in0.0 mm
05:45 AM 33.4°F0.8°C 31.9°F-0.1°C 94% 4.3 mph NE6.9 kmh NE 7.0 mph11.3 kmh 29.57 in1001.4 mb - 0.00 in0.0 mm 0.00 in0.0 mm
06:00 AM 33.5°F0.8°C 32.0°F0.0°C 94% 4.1 mph N6.6 kmh N 5.0 mph8.0 kmh 29.56 in1001.0 mb - 0.00 in0.0 mm 0.00 in0.0 mm
06:15 AM 33.6°F0.9°C 32.1°F0.1°C 94% 10.1 mph NNE16.3 kmh NNE 16.0 mph25.7 kmh 29.57 in1001.4 mb - 0.00 in0.0 mm 0.00 in0.0 mm
06:30 AM 33.7°F0.9°C 32.1°F0.1°C 94% 9.4 mph NNE15.1 kmh NNE 20.0 mph32.2 kmh 29.56 in1001.0 mb - 0.00 in0.0 mm 0.00 in0.0 mm
06:45 AM 33.6°F0.9°C 32.0°F0.0°C 94% 5.8 mph SW9.3 kmh SW 13.0 mph20.9 kmh 29.56 in1001.0 mb - 0.00 in0.0 mm 0.00 in0.0 mm
07:00 AM 33.6°F0.9°C 31.8°F-0.1°C 93% 10.6 mph NNE17.1 kmh NNE 15.0 mph24.1 kmh 29.56 in1001.0 mb - 0.00 in0.0 mm 0.00 in0.0 mm
07:15 AM 33.5°F0.8°C 31.7°F-0.2°C 93% 6.3 mph WSW10.1 kmh WSW 16.0 mph25.7 kmh 29.56 in1001.0 mb - 0.00 in0.0 mm 0.00 in0.0 mm
07:30 AM 33.3°F0.7°C 31.5°F-0.3°C 93% 5.8 mph N9.3 kmh N 14.0 mph22.5 kmh 29.55 in1000.7 mb - 0.00 in0.0 mm 0.00 in0.0 mm
07:45 AM 33.2°F0.7°C 31.7°F-0.2°C 94% 7.4 mph N11.9 kmh N 17.0 mph27.4 kmh 29.55 in1000.7 mb - 0.00 in0.0 mm 0.00 in0.0 mm
08:00 AM 33.2°F0.7°C 31.7°F-0.2°C 94% 6.0 mph WSW9.7 kmh WSW 14.0 mph22.5 kmh 29.55 in1000.7 mb - 0.00 in0.0 mm 0.00 in0.0 mm
08:15 AM 33.2°F0.7°C 31.4°F-0.3°C 93% 6.3 mph N10.1 kmh N 6.0 mph9.7 kmh 29.55 in1000.7 mb - 0.00 in0.0 mm 0.00 in0.0 mm
08:30 AM 33.3°F0.7°C 31.5°F-0.3°C 93% 9.8 mph NNE15.8 kmh NNE 18.0 mph29.0 kmh 29.55 in1000.7 mb - 0.00 in0.0 mm 0.00 in0.0 mm
08:45 AM 33.3°F0.7°C 31.2°F-0.4°C 92% 8.3 mph SW13.4 kmh SW 17.0 mph27.4 kmh 29.55 in1000.7 mb - 0.00 in0.0 mm 0.00 in0.0 mm
09:00 AM 33.0°F0.6°C 30.9°F-0.6°C 92% 13.3 mph NNE21.4 kmh NNE 20.0 mph32.2 kmh 29.56 in1001.0 mb - 0.00 in0.0 mm 0.00 in0.0 mm
09:15 AM 32.6°F0.3°C 30.8°F-0.7°C 93% 3.2 mph NNE5.1 kmh NNE 8.0 mph12.9 kmh 29.55 in1000.7 mb - 0.00 in0.0 mm 0.00 in0.0 mm
09:30 AM 32.2°F0.1°C 30.4°F-0.9°C 93% 3.9 mph WSW6.3 kmh WSW 15.0 mph24.1 kmh 29.56 in1001.0 mb - 0.00 in0.0 mm 0.00 in0.0 mm
09:45 AM 31.9°F-0.1°C 30.4°F-0.9°C 94% 5.6 mph SW9.0 kmh SW 20.0 mph32.2 kmh 29.55 in1000.7 mb - 0.00 in0.0 mm 0.00 in0.0 mm
10:00 AM 31.7°F-0.2°C 30.2°F-1.0°C 94% 6.7 mph N10.8 kmh N 7.0 mph11.3 kmh 29.55 in1000.7 mb - 0.00 in0.0 mm 0.00 in0.0 mm
10:15 AM 31.5°F-0.3°C 30.2°F-1.0°C 95% 6.0 mph WSW9.7 kmh WSW 10.0 mph16.1 kmh 29.55 in1000.7 mb - 0.00 in0.0 mm 0.00 in0.0 mm
10:30 AM 31.4°F-0.3°C 30.1°F-1.1°C 95% 3.8 mph NW6.1 kmh NW 12.0 mph19.3 kmh 29.55 in1000.7 mb - 0.00 in0.0 mm 0.00 in0.0 mm
10:45 AM 31.4°F-0.3°C 30.1°F-1.1°C 95% 2.7 mph WSW4.3 kmh WSW 11.0 mph17.7 kmh 29.55 in1000.7 mb - 0.00 in0.0 mm 0.00 in0.0 mm
11:00 AM 31.4°F-0.3°C 30.1°F-1.1°C 95% 5.4 mph W8.7 kmh W 6.0 mph9.7 kmh 29.55 in1000.7 mb - 0.00 in0.0 mm 0.00 in0.0 mm
11:15 AM 31.5°F-0.3°C 30.5°F-0.8°C 96% 2.5 mph WSW4.0 kmh WSW 10.0 mph16.1 kmh 29.56 in1001.0 mb - 0.00 in0.0 mm 0.00 in0.0 mm
11:30 AM 31.8°F-0.1°C 30.8°F-0.7°C 96% 2.6 mph NNW4.2 kmh NNW 8.0 mph12.9 kmh 29.56 in1001.0 mb - 0.00 in0.0 mm 0.00 in0.0 mm
11:45 AM 32.1°F0.1°C 31.1°F-0.5°C 96% 3.7 mph W6.0 kmh W 11.0 mph17.7 kmh 29.56 in1001.0 mb - 0.00 in0.0 mm 0.00 in0.0 mm
12:00 PM 32.4°F0.2°C 31.4°F-0.3°C 96% 0.4 mph NNE0.6 kmh NNE 12.0 mph19.3 kmh 29.57 in1001.4 mb - 0.00 in0.0 mm 0.00 in0.0 mm
12:15 PM 32.8°F0.4°C 31.8°F-0.1°C 96% 3.8 mph WSW6.1 kmh WSW 14.0 mph22.5 kmh 29.57 in1001.4 mb - 0.00 in0.0 mm 0.00 in0.0 mm
12:30 PM 33.0°F0.6°C 32.0°F0.0°C 96% 3.3 mph NNW5.3 kmh NNW 10.0 mph16.1 kmh 29.57 in1001.4 mb - 0.01 in0.3 mm 0.01 in0.3 mm
12:45 PM 33.3°F0.7°C 32.3°F0.2°C 96% 4.4 mph W7.1 kmh W 11.0 mph17.7 kmh 29.57 in1001.4 mb - 0.02 in0.5 mm 0.02 in0.5 mm
01:00 PM 33.5°F0.8°C 32.4°F0.2°C 96% 3.6 mph N5.8 kmh N 9.0 mph14.5 kmh 29.57 in1001.4 mb - 0.02 in0.5 mm 0.03 in0.8 mm
01:15 PM 33.8°F1.0°C 32.7°F0.4°C 96% 1.0 mph WSW1.6 kmh WSW 11.0 mph17.7 kmh 29.57 in1001.4 mb - 0.02 in0.5 mm 0.04 in1.0 mm
01:30 PM 34.1°F1.2°C 33.1°F0.6°C 96% 5.1 mph W8.2 kmh W 9.0 mph14.5 kmh 29.56 in1001.0 mb - 0.02 in0.5 mm 0.06 in1.5 mm
01:45 PM 34.2°F1.2°C 33.2°F0.7°C 96% 3.7 mph SW6.0 kmh SW 4.0 mph6.4 kmh 29.55 in1000.7 mb - 0.02 in0.5 mm 0.08 in2.0 mm
02:00 PM 34.4°F1.3°C 33.4°F0.8°C 96% 8.8 mph NNE14.2 kmh NNE 16.0 mph25.7 kmh 29.55 in1000.7 mb - 0.02 in0.5 mm 0.10 in2.5 mm
02:15 PM 34.7°F1.5°C 33.4°F0.8°C 95% 6.3 mph N10.1 kmh N 15.0 mph24.1 kmh 29.54 in1000.3 mb - 0.03 in0.8 mm 0.13 in3.3 mm
02:30 PM 35.1°F1.7°C 33.8°F1.0°C 95% 4.7 mph NE7.6 kmh NE 13.0 mph20.9 kmh 29.54 in1000.3 mb - 0.03 in0.8 mm 0.15 in3.8 mm
02:45 PM 35.6°F2.0°C 34.0°F1.1°C 94% 6.7 mph N10.8 kmh N 11.0 mph17.7 kmh 29.55 in1000.7 mb - 0.02 in0.5 mm 0.17 in4.3 mm
03:00 PM 36.0°F2.2°C 34.2°F1.2°C 93% 1.4 mph N2.3 kmh N 1.0 mph1.6 kmh 29.55 in1000.7 mb - 0.01 in0.3 mm 0.18 in4.6 mm
03:15 PM 36.0°F2.2°C 33.6°F0.9°C 91% 8.8 mph SW14.2 kmh SW 13.0 mph20.9 kmh 29.55 in1000.7 mb - 0.02 in0.5 mm 0.20 in5.1 mm
03:30 PM 35.9°F2.2°C 33.5°F0.8°C 91% 3.6 mph SW5.8 kmh SW 7.0 mph11.3 kmh 29.56 in1001.0 mb - 0.01 in0.3 mm 0.21 in5.3 mm
03:45 PM 35.5°F1.9°C 32.9°F0.5°C 90% 1.3 mph SW2.1 kmh SW 6.0 mph9.7 kmh 29.56 in1001.0 mb - 0.01 in0.3 mm 0.22 in5.6 mm
04:00 PM 35.5°F1.9°C 32.9°F0.5°C 90% 2.5 mph SW4.0 kmh SW 9.0 mph14.5 kmh 29.56 in1001.0 mb - 0.02 in0.5 mm 0.24 in6.1 mm
04:15 PM 35.5°F1.9°C 32.9°F0.5°C 90% 5.8 mph WSW9.3 kmh WSW 9.0 mph14.5 kmh 29.56 in1001.0 mb - 0.01 in0.3 mm 0.24 in6.1 mm
04:30 PM 35.6°F2.0°C 32.7°F0.4°C 89% 2.1 mph SE3.4 kmh SE 5.0 mph8.0 kmh 29.56 in1001.0 mb - 0.01 in0.3 mm 0.25 in6.4 mm
04:45 PM 35.8°F2.1°C 32.3°F0.2°C 87% 7.7 mph WSW12.4 kmh WSW 14.0 mph22.5 kmh 29.57 in1001.4 mb - 0.01 in0.3 mm 0.26 in6.6 mm
05:00 PM 36.0°F2.2°C 31.9°F-0.1°C 85% 2.2 mph SW3.5 kmh SW 5.0 mph8.0 kmh 29.58 in1001.7 mb - 0.01 in0.3 mm 0.27 in6.9 mm
05:15 PM 36.3°F2.4°C 31.6°F-0.2°C 83% 3.2 mph W5.1 kmh W 8.0 mph12.9 kmh 29.58 in1001.7 mb - 0.01 in0.3 mm 0.27 in6.9 mm
05:30 PM 36.7°F2.6°C 32.0°F0.0°C 83% 3.1 mph WSW5.0 kmh WSW 15.0 mph24.1 kmh 29.59 in1002.0 mb - 0.00 in0.0 mm 0.27 in6.9 mm
05:45 PM 36.7°F2.6°C 32.1°F0.1°C 83% 3.8 mph NW6.1 kmh NW 8.0 mph12.9 kmh 29.59 in1002.0 mb - 0.01 in0.3 mm 0.28 in7.1 mm
06:00 PM 36.3°F2.4°C 31.6°F-0.2°C 83% 8.4 mph N13.5 kmh N 13.0 mph20.9 kmh 29.59 in1002.0 mb - 0.00 in0.0 mm 0.28 in7.1 mm
06:15 PM 36.3°F2.4°C 31.0°F-0.6°C 81% 1.5 mph SW2.4 kmh SW 5.0 mph8.0 kmh 29.60 in1002.4 mb - 0.00 in0.0 mm 0.28 in7.1 mm
06:30 PM 36.3°F2.4°C 30.7°F-0.7°C 80% 2.0 mph N3.2 kmh N 9.0 mph14.5 kmh 29.60 in1002.4 mb - 0.00 in0.0 mm 0.28 in7.1 mm
06:45 PM 36.1°F2.3°C 30.8°F-0.7°C 81% 2.5 mph WSW4.0 kmh WSW 8.0 mph12.9 kmh 29.61 in1002.7 mb - 0.00 in0.0 mm 0.28 in7.1 mm
07:00 PM 35.8°F2.1°C 30.8°F-0.7°C 82% 1.6 mph WSW2.6 kmh WSW 5.0 mph8.0 kmh 29.61 in1002.7 mb - 0.00 in0.0 mm 0.28 in7.1 mm
07:15 PM 35.6°F2.0°C 30.6°F-0.8°C 82% 2.7 mph WSW4.3 kmh WSW 8.0 mph12.9 kmh 29.62 in1003.0 mb - 0.00 in0.0 mm 0.28 in7.1 mm
07:30 PM 35.5°F1.9°C 30.6°F-0.8°C 82% 1.0 mph WSW1.6 kmh WSW 1.0 mph1.6 kmh 29.62 in1003.0 mb - 0.00 in0.0 mm 0.28 in7.1 mm
07:45 PM 35.4°F1.9°C 30.5°F-0.8°C 82% Calm Calm -- 29.62 in1003.0 mb - 0.00 in0.0 mm 0.28 in7.1 mm
08:00 PM 35.3°F1.8°C 30.3°F-0.9°C 82% 0.8 mph SW1.3 kmh SW 4.0 mph6.4 kmh 29.62 in1003.0 mb - 0.00 in0.0 mm 0.28 in7.1 mm
08:15 PM 35.1°F1.7°C 29.9°F-1.2°C 81% 3.1 mph WSW5.0 kmh WSW 4.0 mph6.4 kmh 29.62 in1003.0 mb - 0.00 in0.0 mm 0.28 in7.1 mm
08:30 PM 35.0°F1.7°C 29.7°F-1.3°C 81% Calm Calm -- 29.62 in1003.0 mb - 0.00 in0.0 mm 0.28 in7.1 mm
08:45 PM 34.8°F1.6°C 29.3°F-1.5°C 80% Calm Calm -- 29.62 in1003.0 mb - 0.00 in0.0 mm 0.28 in7.1 mm
09:00 PM 34.5°F1.4°C 28.7°F-1.8°C 79% 3.4 mph N5.5 kmh N 7.0 mph11.3 kmh 29.63 in1003.4 mb - 0.00 in0.0 mm 0.28 in7.1 mm
09:15 PM 34.4°F1.3°C 28.2°F-2.1°C 78% 3.0 mph SW4.8 kmh SW 11.0 mph17.7 kmh 29.62 in1003.0 mb - 0.00 in0.0 mm 0.28 in7.1 mm
09:30 PM 34.4°F1.3°C 27.9°F-2.3°C 77% 3.7 mph SW6.0 kmh SW 5.0 mph8.0 kmh 29.62 in1003.0 mb - 0.00 in0.0 mm 0.28 in7.1 mm
09:45 PM 34.1°F1.2°C 27.7°F-2.4°C 77% 2.5 mph WSW4.0 kmh WSW 7.0 mph11.3 kmh 29.62 in1003.0 mb - 0.00 in0.0 mm 0.28 in7.1 mm
10:00 PM 34.0°F1.1°C 27.2°F-2.7°C 76% 1.6 mph SW2.6 kmh SW 13.0 mph20.9 kmh 29.62 in1003.0 mb - 0.00 in0.0 mm 0.28 in7.1 mm
10:15 PM 34.1°F1.2°C 26.7°F-2.9°C 74% 0.9 mph SW1.4 kmh SW 2.0 mph3.2 kmh 29.62 in1003.0 mb - 0.00 in0.0 mm 0.28 in7.1 mm
10:30 PM 33.8°F1.0°C 26.4°F-3.1°C 74% 0.2 mph S0.3 kmh S 2.0 mph3.2 kmh 29.62 in1003.0 mb - 0.00 in0.0 mm 0.28 in7.1 mm
10:45 PM 33.4°F0.8°C 26.3°F-3.2°C 75% 2.7 mph SW4.3 kmh SW 7.0 mph11.3 kmh 29.62 in1003.0 mb - 0.00 in0.0 mm 0.28 in7.1 mm
11:00 PM 33.4°F0.8°C 26.0°F-3.3°C 74% Calm Calm 1.0 mph1.6 kmh 29.62 in1003.0 mb - 0.00 in0.0 mm 0.28 in7.1 mm
11:15 PM 33.2°F0.7°C 25.5°F-3.6°C 73% 1.4 mph S2.3 kmh S 3.0 mph4.8 kmh 29.62 in1003.0 mb - 0.00 in0.0 mm 0.28 in7.1 mm
11:30 PM 33.2°F0.7°C 25.5°F-3.6°C 73% 0.6 mph SSE1.0 kmh SSE 4.0 mph6.4 kmh 29.62 in1003.0 mb - 0.00 in0.0 mm 0.28 in7.1 mm
11:45 PM 33.0°F0.6°C 25.3°F-3.7°C 73% 1.7 mph WSW2.7 kmh WSW 3.0 mph4.8 kmh 29.61 in1002.7 mb - 0.00 in0.0 mm 0.28 in7.1 mm